Latest Coastal Weather Observations for Broome

IDW60701

Issued at 3:23 am WST Thursday 29 June 2017 (issued every 10 minutes, with the page automatically refreshed every 10 minutes)

About coastal observations | Map of coastal stations | Coastal observations for WA | Marine services | Other Formats
Station Details ID: 003003 Name: BROOME AIRPORT Lat: -17.95 Lon: 122.24 Height: 7.42 m
Data from the previous 72 hours. | See also: Recent months at Broome
Date/Time
WST
Temp
°C
Wind Pressure Rain since
9am
mm
Weather Cloud Vis
km
Sea
Height
m
Swell
Dir  Spd
kts
Gust
kts
hPa Trend Height
m
Period
s
Dir
29/03:00am 18.4 ESE 15 21 1017.4 - 0.0 - - 10 - - - -
29/02:30am 18.5 ESE 15 21 1017.7 - 0.0 - - 10 - - - -
29/02:00am 19.0 ESE 16 24 1017.7 - 0.0 - - 10 - - - -
29/01:30am 19.6 ESE 18 25 1017.9 - 0.0 - - 10 - - - -
29/01:08am 19.8 ESE 17 28 1018.0 - 0.0 - - 10 - - - -
29/01:00am 19.9 SE 17 26 1018.1 - 0.0 - - 10 - - - -
29/12:30am 19.9 SE 17 24 1018.3 - 0.0 - - 10 - - - -
29/12:00am 20.1 SE 15 21 1018.3 - 0.0 - - 10 - - - -
 
Date/Time
WST
Temp
°C
Wind Pressure Rain since
9am
mm
Weather Cloud Vis
km
Sea
Height
m
Swell
Dir  Spd
kts
Gust
kts
hPa Trend Height
m
Period
s
Dir
28/11:30pm 20.3 ESE 14 20 1018.7 - 0.0 - - 10 - - - -
28/11:00pm 20.5 SE 15 21 1018.7 - 0.0 - - 10 - - - -
28/10:30pm 20.3 ESE 13 20 1018.8 - 0.0 - - 10 - - - -
28/10:00pm 20.4 SE 12 17 1018.8 - 0.0 - - 10 - - - -
28/09:30pm 20.8 SE 12 16 1018.8 - 0.0 - - 10 - - - -
28/09:00pm 21.3 SE 10 14 1018.3 - 0.0 - - 10 - - - -
28/08:30pm 21.5 SE 10 14 1018.0 - 0.0 - - 10 - - - -
28/08:00pm 22.2 SE 9 13 1017.8 - 0.0 - - 10 - - - -
28/07:30pm 22.6 SE 9 13 1017.6 - 0.0 - - 10 - - - -
28/07:00pm 21.3 SE 7 8 1017.5 - 0.0 - - 10 - - - -
28/06:30pm 22.2 SE 7 10 1017.0 - 0.0 - - 10 - - - -
28/06:00pm 22.6 ESE 8 10 1016.7 - 0.0 - - 10 - - - -
28/05:30pm 23.8 SE 9 13 1016.6 - 0.0 - - 10 - - - -
28/05:00pm 24.5 SE 10 13 1016.2 - 0.0 - - 10 - - - -
28/04:30pm 24.4 SE 7 10 1016.0 - 0.0 - - 10 - - - -
28/04:00pm 24.9 ESE 9 12 1015.6 - 0.0 - - 10 - - - -
28/03:30pm 25.6 ESE 10 13 1015.4 - 0.0 - - 10 - - - -
28/03:00pm 25.8 ESE 10 13 1015.4 - 0.0 - - 10 - - - -
28/02:30pm 25.5 ESE 11 15 1015.5 - 0.0 - - 10 - - - -
28/02:00pm 25.2 ESE 12 17 1015.6 - 0.0 - - 10 - - - -
28/01:30pm 25.5 ESE 13 18 1015.7 - 0.0 - - 10 - - - -
28/01:00pm 24.9 ESE 14 18 1016.1 - 0.0 - - 10 - - - -
28/12:30pm 24.5 ESE 13 21 1016.4 - 0.0 - - 10 - - - -
28/12:00pm 24.3 ESE 14 18 1017.0 - 0.0 - - 10 - - - -
28/11:30am 24.1 ESE 15 21 1017.4 - 0.0 - - 10 - - - -
28/11:00am 23.3 ESE 15 20 1017.9 - 0.0 - - 10 - - - -
28/10:30am 22.8 ESE 17 22 1018.2 - 0.0 - - 10 - - - -
28/10:00am 21.6 ESE 15 21 1018.6 - 0.0 - - 10 - - - -
28/09:30am 20.7 ESE 17 22 1018.7 - 0.0 - - 10 - - - -
28/09:00am 19.8 ESE 17 24 1018.7 - 0.0 - - 10 - - - -
28/08:30am 19.1 ESE 17 22 1018.7 - 0.0 - - 10 - - - -
28/08:00am 18.5 ESE 14 20 1018.5 - 0.0 - - 10 - - - -
28/07:30am 18.4 ESE 14 20 1018.4 - 0.0 - - 10 - - - -
28/07:00am 17.3 ESE 13 16 1018.0 - 0.0 - - 10 - - - -
28/06:30am 17.4 ESE 13 17 1017.7 - 0.0 - - 10 - - - -
28/06:00am 17.8 ESE 13 16 1017.1 - 0.0 - - 10 - - - -
28/05:30am 18.2 ESE 14 19 1016.9 - 0.0 - - 10 - - - -
28/05:00am 18.8 ESE 13 18 1016.5 - 0.0 - - 10 - - - -
28/04:30am 19.4 SE 16 23 1016.3 - 0.0 - - 10 - - - -
28/04:00am 19.8 SE 15 21 1016.1 - 0.0 - - 10 - - - -
28/03:30am 20.1 SE 13 21 1016.1 - 0.0 - - 10 - - - -
28/03:00am 20.4 SE 14 19 1016.0 - 0.0 - - 10 - - - -
28/02:30am 20.7 SE 13 17 1015.9 - 0.0 - - 10 - - - -
28/02:00am 21.1 SE 13 17 1015.9 - 0.0 - - 10 - - - -
28/01:30am 21.4 SE 13 20 1015.9 - 0.0 - - 10 - - - -
28/01:00am 21.8 SE 13 18 1016.1 - 0.0 - - 10 - - - -
28/12:30am 22.2 SE 11 16 1015.9 - 0.0 - - 10 - - - -
28/12:00am 22.4 SE 12 19 1015.9 - 0.0 - - 10 - - - -
 
Date/Time
WST
Temp
°C
Wind Pressure Rain since
9am
mm
Weather Cloud Vis
km
Sea
Height
m
Swell
Dir  Spd
kts
Gust
kts
hPa Trend Height
m
Period
s
Dir
27/11:30pm 22.6 SE 10 15 1016.1 - 0.0 - - 10 - - - -
27/11:00pm 23.0 SSE 11 15 1016.1 - 0.0 - - 10 - - - -
27/10:30pm 23.3 SSE 11 17 1016.0 - 0.0 - - 10 - - - -
27/10:00pm 23.5 SSE 10 13 1016.1 - 0.0 - - 10 - - - -
27/09:30pm 23.5 S 7 9 1016.1 - 0.0 - - 10 - - - -
27/09:00pm 23.6 S 6 8 1015.8 - 0.0 - - 10 - - - -
27/08:30pm 24.1 SSE 7 10 1015.8 - 0.0 - - 10 - - - -
27/08:00pm 24.3 S 7 10 1015.7 - 0.0 - - 10 - - - -
27/07:30pm 24.8 S 7 10 1015.4 - 0.0 - - 10 - - - -
27/07:00pm 25.6 S 8 11 1015.1 - 0.0 - - 10 - - - -
27/06:30pm 25.8 S 10 14 1014.7 - 0.0 - - 10 - - - -
27/06:00pm 25.7 SSW 7 11 1014.3 - 0.0 - - 10 - - - -
27/05:30pm 25.6 WSW 8 10 1013.9 - 0.0 - - 10 - - - -
27/05:00pm 26.2 WSW 8 11 1013.6 - 0.0 - - 10 - - - -
27/04:30pm 26.7 WSW 9 11 1013.3 - 0.0 - - 10 - - - -
27/04:00pm 27.4 WSW 11 13 1013.1 - 0.0 - - 10 - - - -
27/03:30pm 27.5 WSW 11 13 1013.0 - 0.0 - - 10 - - - -
27/03:00pm 28.8 WSW 8 11 1012.9 - 0.0 - - 10 - - - -
27/02:30pm 29.8 SSE 5 7 1012.9 - 0.0 - - 10 - - - -
27/02:00pm 30.0 SSE 6 7 1013.1 - 0.0 - - 10 - - - -
27/01:30pm 29.4 S 6 9 1013.5 - 0.0 - - 10 - - - -
27/01:00pm 28.7 SSE 6 8 1013.8 - 0.0 - - 10 - - - -
27/12:30pm 28.4 S 7 10 1014.1 - 0.0 - - 10 - - - -
27/12:00pm 28.1 SSE 8 10 1014.5 - 0.0 - - 10 - - - -
27/11:30am 27.6 SSE 9 11 1014.9 - 0.0 - - 10 - - - -
27/11:00am 26.9 SE 8 13 1015.3 - 0.0 - - 10 - - - -
27/10:30am 26.4 SE 9 13 1015.8 - 0.0 - - 10 - - - -
27/10:00am 25.5 SE 11 14 1016.1 - 0.0 - - 10 - - - -
27/09:30am 24.7 SE 10 13 1016.4 - 0.0 - - 10 - - - -
27/09:00am 23.2 SE 11 14 1016.3 - 0.0 - - 10 - - - -
27/08:30am 22.6 ESE 11 14 1016.5 - 0.0 - - 10 - - - -
27/08:00am 21.7 SE 8 11 1016.2 - 0.0 - - 10 - - - -
27/07:30am 21.1 ESE 8 11 1015.9 - 0.0 - - 10 - - - -
27/07:00am 20.9 SSE 8 11 1015.6 - 0.0 - - 10 - - - -
27/06:30am 20.7 SSE 9 12 1015.3 - 0.0 - - 10 - - - -
27/06:00am 20.8 SSE 9 11 1015.0 - 0.0 - - 10 - - - -
27/05:30am 21.1 SSE 8 11 1014.7 - 0.0 - - 10 - - - -
27/05:00am 21.3 S 7 11 1014.5 - 0.0 - - 10 - - - -
27/04:30am 21.2 S 5 6 1014.4 - 0.0 - - 10 - - - -
27/04:00am 18.3 CALM 0 4 1014.4 - 0.0 - - 10 - - - -
27/03:30am 19.5 S 1 4 1014.4 - 0.0 - - 10 - - - -
27/03:00am 21.1 S 3 4 1014.2 - 0.0 - - 10 - - - -
27/02:30am 21.3 S 1 4 1014.4 - 0.0 - - 10 - - - -
27/02:00am 21.6 SSW 4 6 1014.4 - 0.0 - - 10 - - - -
27/01:30am 21.8 S 4 5 1014.8 - 0.0 - - 10 - - - -
27/01:00am 21.9 S 5 8 1015.1 - 0.0 - - 10 - - - -
27/12:30am 22.3 S 5 8 1015.3 - 0.0 - - 10 - - - -
27/12:00am 22.6 SW 6 8 1015.1 - 0.0 - - 10 - - - -
 
Date/Time
WST
Temp
°C
Wind Pressure Rain since
9am
mm
Weather Cloud Vis
km
Sea
Height
m
Swell
Dir  Spd
kts
Gust
kts
hPa Trend Height
m
Period
s
Dir
26/11:30pm 22.3 SW 4 6 1015.2 - 0.0 - - 10 - - - -
26/11:00pm 20.8 WSW 1 4 1015.4 - 0.0 - - 10 - - - -
26/10:30pm 22.3 W 3 5 1015.2 - 0.0 - - 10 - - - -
26/10:00pm 22.5 W 4 5 1015.4 - 0.0 - - 10 - - - -
26/09:30pm 22.6 W 5 6 1015.4 - 0.0 - - 10 - - - -
26/09:00pm 22.8 W 5 6 1015.2 - 0.0 - - 10 - - - -
26/08:30pm 22.9 W 5 8 1015.2 - 0.0 - - 10 - - - -
26/08:00pm 23.1 W 5 8 1015.0 - 0.0 - - 10 - - - -
26/07:30pm 23.2 W 6 8 1014.6 - 0.0 - - 10 - - - -
26/07:00pm 23.4 W 6 8 1014.5 - 0.0 - - 10 - - - -
26/06:30pm 23.5 W 7 9 1014.2 - 0.0 - - 10 - - - -
26/06:00pm 23.7 W 8 10 1013.8 - 0.0 - - 10 - - - -
26/05:30pm 23.9 W 8 11 1013.9 - 0.0 - - 10 - - - -
26/05:00pm 24.3 W 9 11 1013.4 - 0.0 - - 10 - - - -
26/04:30pm 24.8 W 11 14 1013.4 - 0.0 - - 10 - - - -
26/04:00pm 25.5 W 10 14 1013.2 - 0.0 - - 10 - - - -
26/03:30pm 25.5 WNW 10 13 1013.1 - 0.0 - Mostly clear 10 - - - -
26/03:00pm 26.1 WNW 9 13 1013.0 - 0.0 - Mostly clear 10 - - - -
26/02:30pm 26.8 WNW 9 11 1013.0 - 0.0 - Mostly clear 10 - - - -
26/02:00pm 26.9 W 8 11 1013.2 - 0.0 - Mostly clear 10 - - - -
26/01:30pm 27.0 W 8 10 1013.2 - 0.0 - Mostly clear 10 - - - -
26/01:00pm 27.4 W 8 10 1013.4 - 0.0 - Mostly clear 10 - - - -
26/12:30pm 27.9 WSW 7 12 1013.9 - 0.0 - Mostly clear 10 - - - -
26/12:00pm 27.2 SSW 7 10 1014.2 - 0.0 - Mostly clear 10 - - - -
26/11:30am 26.9 S 7 11 1014.6 - 0.0 - - 10 - - - -
26/11:00am 26.1 SSE 6 10 1015.0 - 0.0 - Mostly clear 10 - - - -
26/10:30am 25.3 S 5 7 1015.2 - 0.0 - Mostly clear 10 - - - -
26/10:00am 24.3 SE 5 8 1015.5 - 0.0 - Mostly clear 10 - - - -
26/09:30am 23.6 SE 5 8 1015.6 - 0.0 - Mostly clear 10 - - - -
26/09:00am 22.8 SE 6 7 1015.5 - 0.0 - Mostly clear 10 - - - -
26/08:52am 22.5 SE 5 7 1015.5 - 0.0 - Partly cloudy 10 - - - -
26/08:38am 21.7 ESE 4 6 1015.5 - 0.0 - Mostly clear 10 - - - -
26/08:30am 21.4 ESE 4 6 1015.5 - 0.0 Fog patches Partly cloudy 3 - - - -
26/08:26am 20.9 ESE 4 5 1015.4 - 0.0 Fog patches Partly cloudy 2 - - - -
26/08:00am 20.1 E 3 4 1015.0 - 0.0 Fog Cloudy 0.2 - - - -
26/07:46am 19.6 ENE 3 4 1014.7 - 0.0 Fog Cloudy 0.2 - - - -
26/07:30am 19.0 NE 3 3 1014.5 - 0.0 Fog Cloudy 0.5 - - - -
26/07:16am 18.4 ENE 3 4 1014.3 - 0.0 - Cloudy 10 - - - -
26/07:00am 17.4 ENE 2 3 1014.2 - 0.0 - Cloudy 8 - - - -
26/06:52am 17.0 NNE 1 3 1014.0 - 0.0 - Partly cloudy 1 - - - -
26/06:40am 16.8 NNW 1 4 1013.8 - 0.0 - Partly cloudy 0.8 - - - -
26/06:36am 16.8 CALM 0 4 1013.7 - 0.0 - Partly cloudy 6 - - - -
26/06:30am 16.8 CALM 0 0 1013.5 - 0.0 - - 10 - - - -
26/06:00am 17.0 CALM 0 0 1013.1 - 0.0 - - 10 - - - -
26/05:30am 17.4 CALM 0 0 1013.1 - 0.0 - - 10 - - - -
26/05:00am 17.5 CALM 0 0 1012.7 - 0.0 - - 10 - - - -
26/04:30am 17.6 CALM 0 0 1012.6 - 0.0 - Partly cloudy 10 - - - -
26/04:00am 17.6 CALM 0 0 1012.5 - 0.0 - Partly cloudy 10 - - - -
26/03:30am 17.9 CALM 0 0 1012.3 - 0.0 - - 10 - - - -

Other Formats:

Comma delimited format used in spreadsheet applications
http://www.bom.gov.au/fwo/IDW60701/IDW60701.94203.axf

JavaScript Object Notation format (JSON) in row-major order
http://www.bom.gov.au/fwo/IDW60701/IDW60701.94203.json